createdAt,value
2019-03-11T00:00:10.056Z,85.12
2019-03-11T00:05:12.897Z,85.57
2019-03-11T00:10:16.085Z,86.27
2019-03-11T00:15:19.804Z,88.11
2019-03-11T00:20:22.684Z,88.99
2019-03-11T00:25:25.853Z,88.47
2019-03-11T00:30:29.317Z,89.16
2019-03-11T00:35:32.899Z,88.75
2019-03-11T00:40:35.747Z,87.59
2019-03-11T00:45:38.640Z,86.62
2019-03-11T00:50:42.152Z,87.39
2019-03-11T00:55:45.368Z,87.58
2019-03-11T01:00:48.954Z,87.77
2019-03-11T01:05:52.607Z,87.60
2019-03-11T01:10:55.804Z,87.95
2019-03-11T01:15:59.024Z,89.21
2019-03-11T01:21:02.233Z,88.83
2019-03-11T01:26:05.249Z,89.18
2019-03-11T01:31:08.132Z,89.57
2019-03-11T01:36:11.339Z,90.46
2019-03-11T01:41:14.559Z,89.35
2019-03-11T01:46:17.118Z,90.82
2019-03-11T01:51:19.683Z,90.24
2019-03-11T01:56:22.962Z,90.95
2019-03-11T02:01:26.277Z,91.32
2019-03-11T02:06:29.430Z,90.52
2019-03-11T02:11:32.901Z,90.56
2019-03-11T02:16:36.463Z,91.92
2019-03-11T02:21:39.272Z,91.09
2019-03-11T02:26:42.197Z,91.46
2019-03-11T02:31:45.339Z,90.74
2019-03-11T02:36:48.238Z,90.81
2019-03-11T02:41:51.501Z,90.63
2019-03-11T02:46:54.745Z,90.96
2019-03-11T02:51:57.558Z,90.79
2019-03-11T02:57:01.073Z,89.59
2019-03-11T03:02:36.050Z,89.35
2019-03-11T03:07:38.932Z,91.60
2019-03-11T03:12:41.860Z,91.45
2019-03-11T03:17:45.159Z,92.52
2019-03-11T03:22:48.077Z,92.92
2019-03-11T03:27:51.460Z,93.14
2019-03-11T03:32:53.955Z,92.38
2019-03-11T03:37:56.570Z,92.04
2019-03-11T03:43:00.280Z,93.03
2019-03-11T03:48:03.283Z,93.62
2019-03-11T03:53:06.576Z,93.41
2019-03-11T03:58:10.095Z,93.18
2019-03-11T04:03:13.117Z,93.36
2019-03-11T04:08:16.326Z,93.64
2019-03-11T04:13:18.483Z,92.56
2019-03-11T04:18:22.054Z,90.90
2019-03-11T04:23:25.240Z,88.96
2019-03-11T04:28:28.837Z,88.53
2019-03-11T04:33:32.005Z,89.41
2019-03-11T04:38:35.151Z,91.29
2019-03-11T04:43:38.392Z,91.29
2019-03-11T04:48:41.592Z,91.91
2019-03-11T04:53:44.780Z,90.63
2019-03-11T04:58:47.997Z,91.68
2019-03-11T05:03:51.203Z,90.26
2019-03-11T05:08:54.438Z,91.07
2019-03-11T05:13:57.300Z,91.66
2019-03-11T05:18:59.936Z,91.59
2019-03-11T05:24:03.125Z,91.51
2019-03-11T05:29:06.654Z,90.59
2019-03-11T05:34:09.151Z,90.67
2019-03-11T05:39:11.853Z,89.91
2019-03-11T05:44:15.111Z,90.70
2019-03-11T05:49:17.952Z,89.84
2019-03-11T05:54:21.024Z,89.45
2019-03-11T05:59:24.261Z,89.31
2019-03-11T06:04:27.083Z,89.28
2019-03-11T06:09:30.240Z,90.18
2019-03-11T06:14:33.435Z,90.48
2019-03-11T06:19:36.890Z,89.96
2019-03-11T06:24:40.148Z,89.85
2019-03-11T06:29:43.642Z,91.83
2019-03-11T06:34:46.853Z,91.42
2019-03-11T06:39:50.352Z,91.25
2019-03-11T06:44:53.927Z,90.49
2019-03-11T06:49:56.662Z,90.73
2019-03-11T06:54:59.899Z,91.37
2019-03-11T07:00:02.682Z,92.89
2019-03-11T07:05:06.317Z,92.17
2019-03-11T07:10:09.858Z,92.58
2019-03-11T07:15:13.039Z,90.72
2019-03-11T07:20:16.358Z,90.25
2019-03-11T07:25:19.224Z,89.70
2019-03-11T07:30:22.475Z,92.08
2019-03-11T07:35:25.269Z,91.09
2019-03-11T07:40:30.441Z,91.33
2019-03-11T07:45:33.956Z,93.08
2019-03-11T07:50:37.472Z,90.77
2019-03-11T07:55:40.612Z,89.48
2019-03-11T08:00:53.252Z,89.76
2019-03-11T08:05:48.657Z,90.52
2019-03-11T08:10:51.431Z,89.58
2019-03-11T08:15:54.736Z,89.14
2019-03-11T08:20:58.423Z,91.27
2019-03-11T08:26:01.365Z,92.98
2019-03-11T08:31:05.089Z,93.11
2019-03-11T08:36:08.594Z,92.47
2019-03-11T08:41:11.796Z,93.33
2019-03-11T08:46:14.624Z,92.57
2019-03-11T08:51:17.827Z,93.67
2019-03-11T08:56:21.351Z,92.02
2019-03-11T09:01:24.652Z,92.33
2019-03-11T09:06:27.964Z,90.64
2019-03-11T09:11:30.628Z,90.50
2019-03-11T09:16:33.998Z,91.55
2019-03-11T09:21:37.398Z,90.83
2019-03-11T09:26:40.596Z,90.20
2019-03-11T09:31:43.799Z,90.19
2019-03-11T09:36:47.380Z,90.14
2019-03-11T09:41:49.699Z,90.72
2019-03-11T09:46:52.632Z,89.03
2019-03-11T09:51:55.526Z,90.25
2019-03-11T09:56:58.485Z,89.12
2019-03-11T10:02:02.030Z,89.61
2019-03-11T10:07:06.797Z,89.73
2019-03-11T10:12:09.963Z,89.45
2019-03-11T10:17:13.465Z,89.07
2019-03-11T10:22:16.937Z,87.99
2019-03-11T10:27:19.444Z,87.62
2019-03-11T10:32:22.915Z,86.89
2019-03-11T10:37:26.452Z,87.72
2019-03-11T10:42:29.439Z,90.40
2019-03-11T10:47:32.676Z,90.06
2019-03-11T10:52:35.615Z,91.09
2019-03-11T10:57:38.426Z,90.58
2019-03-11T11:02:41.838Z,89.46
2019-03-11T11:07:44.706Z,89.67
2019-03-11T11:12:48.065Z,88.94
2019-03-11T11:17:51.703Z,88.60
2019-03-11T11:22:54.917Z,88.13
2019-03-11T11:27:58.299Z,88.28
2019-03-11T11:33:00.839Z,88.74
2019-03-11T11:38:04.257Z,89.68
2019-03-11T11:43:07.537Z,89.37
2019-03-11T11:48:10.890Z,88.87
2019-03-11T11:53:14.433Z,88.18
2019-03-11T11:58:17.913Z,89.86
2019-03-11T12:03:21.129Z,89.42
2019-03-11T12:08:24.411Z,88.78
2019-03-11T12:13:27.724Z,85.08
2019-03-11T12:18:31.239Z,83.75
2019-03-11T12:23:45.595Z,84.06
2019-03-11T12:28:40.535Z,83.29
2019-03-11T12:33:44.242Z,82.22
2019-03-11T12:38:47.087Z,80.79
2019-03-11T12:43:50.702Z,77.69
2019-03-11T12:48:54.201Z,74.56
2019-03-11T12:53:57.076Z,76.65
2019-03-11T12:59:00.646Z,77.11
2019-03-11T13:04:05.031Z,72.29
2019-03-11T13:09:07.930Z,73.47
2019-03-11T13:14:10.960Z,74.64
2019-03-11T13:19:14.301Z,67.85
2019-03-11T13:24:17.495Z,68.46
2019-03-11T13:29:21.019Z,64.56
2019-03-11T13:34:24.100Z,63.01
2019-03-11T13:39:27.901Z,65.08
2019-03-11T13:44:31.463Z,70.57
2019-03-11T13:49:34.984Z,67.96
2019-03-11T13:54:38.512Z,68.37
2019-03-11T13:59:41.408Z,71.78
2019-03-11T14:04:44.317Z,73.55
2019-03-11T14:09:47.178Z,72.43
2019-03-11T14:14:50.473Z,72.65
2019-03-11T14:19:53.949Z,71.25
2019-03-11T14:24:56.968Z,67.45
2019-03-11T14:29:59.972Z,67.25
2019-03-11T14:35:02.451Z,67.89
2019-03-11T14:40:06.528Z,72.54
2019-03-11T14:45:11.981Z,74.10
2019-03-11T14:50:15.374Z,74.55
2019-03-11T14:55:18.579Z,75.31
2019-03-11T15:00:22.142Z,76.06
2019-03-11T15:05:25.093Z,75.78
2019-03-11T15:10:28.343Z,67.54
2019-03-11T15:15:31.593Z,59.60
2019-03-11T15:20:35.150Z,56.12
2019-03-11T15:25:38.353Z,56.08
2019-03-11T15:30:41.169Z,61.97
2019-03-11T15:35:44.476Z,63.67
2019-03-11T15:40:47.969Z,65.46
2019-03-11T15:45:51.612Z,67.45
2019-03-11T15:50:54.838Z,68.62
2019-03-11T15:55:57.788Z,67.78
2019-03-11T16:01:00.750Z,65.01
2019-03-11T16:06:04.502Z,62.73
2019-03-11T16:11:07.474Z,61.20
2019-03-11T16:16:10.808Z,59.64
2019-03-11T16:21:14.148Z,60.41
2019-03-11T16:26:16.727Z,62.12
2019-03-11T16:31:20.259Z,63.29
2019-03-11T16:36:23.087Z,65.30
2019-03-11T16:41:26.491Z,66.92
2019-03-11T16:46:30.163Z,67.69
2019-03-11T16:51:33.142Z,67.45
2019-03-11T16:56:36.129Z,69.35
2019-03-11T17:01:39.346Z,69.37
2019-03-11T17:06:42.576Z,69.26
2019-03-11T17:11:45.502Z,69.25
2019-03-11T17:16:50.835Z,69.22
2019-03-11T17:21:54.333Z,70.27
2019-03-11T17:26:57.319Z,70.56
2019-03-11T17:32:00.651Z,70.76
2019-03-11T17:37:03.537Z,72.10
2019-03-11T17:42:06.446Z,72.34
2019-03-11T17:47:09.528Z,72.84
2019-03-11T17:52:13.165Z,73.36
2019-03-11T17:57:16.149Z,73.88
2019-03-11T18:02:19.496Z,73.82
2019-03-11T18:07:22.988Z,74.20
2019-03-11T18:12:26.545Z,75.12
2019-03-11T18:17:29.614Z,76.26
2019-03-11T18:22:32.332Z,76.92
2019-03-11T18:27:35.644Z,78.30
2019-03-11T18:32:38.877Z,78.75
2019-03-11T18:37:42.086Z,78.44
2019-03-11T18:42:47.323Z,79.01
2019-03-11T18:47:50.605Z,79.56
2019-03-11T18:52:54.070Z,80.84
2019-03-11T18:57:57.359Z,81.26
2019-03-11T19:03:00.839Z,80.72
2019-03-11T19:08:03.888Z,80.47
2019-03-11T19:13:09.542Z,80.28
2019-03-11T19:18:12.763Z,80.42
2019-03-11T19:23:17.355Z,82.53
2019-03-11T19:28:24.781Z,82.07
2019-03-11T19:33:31.318Z,82.20
2019-03-11T19:38:37.527Z,82.12
2019-03-11T19:43:44.526Z,82.15
2019-03-11T19:48:51.678Z,82.33
2019-03-11T19:53:58.310Z,82.48
2019-03-11T19:59:08.147Z,82.35
2019-03-11T20:04:17.812Z,82.41
2019-03-11T20:09:26.059Z,82.52
2019-03-11T20:14:35.129Z,82.82
2019-03-11T20:19:43.510Z,82.78
2019-03-11T20:24:54.248Z,82.15
2019-03-11T20:29:59.661Z,82.31
2019-03-11T20:35:06.481Z,81.83
2019-03-11T20:40:12.705Z,81.52
2019-03-11T20:45:20.423Z,81.65
2019-03-11T20:50:37.624Z,81.67
2019-03-11T20:55:37.989Z,81.34
2019-03-11T21:00:43.718Z,81.19
2019-03-11T21:05:48.498Z,80.70
2019-03-11T21:10:52.253Z,80.42
2019-03-11T21:15:56.150Z,79.75
2019-03-11T21:21:04.642Z,79.58
2019-03-11T21:26:04.924Z,79.23
2019-03-11T21:31:08.594Z,78.81
2019-03-11T21:36:11.752Z,78.88
2019-03-11T21:41:15.149Z,78.27
2019-03-11T21:46:18.761Z,78.23
2019-03-11T21:51:21.949Z,77.75
2019-03-11T21:56:24.936Z,77.32
2019-03-11T22:01:28.560Z,77.08
2019-03-11T22:06:31.764Z,77.84
2019-03-11T22:11:35.284Z,77.90
2019-03-11T22:16:38.515Z,77.60
2019-03-11T22:21:42.108Z,77.13
2019-03-11T22:26:45.338Z,77.18
2019-03-11T22:31:48.596Z,77.36
2019-03-11T22:36:51.861Z,77.11
2019-03-11T22:41:54.051Z,77.22
2019-03-11T22:46:57.550Z,77.03
2019-03-11T22:52:01.013Z,80.20
2019-03-11T22:57:04.290Z,79.20
2019-03-11T23:02:11.724Z,78.48
2019-03-11T23:07:15.001Z,78.76
2019-03-11T23:12:18.563Z,78.97
2019-03-11T23:17:21.810Z,79.24
2019-03-11T23:22:25.372Z,79.17
2019-03-11T23:27:28.615Z,78.84
2019-03-11T23:32:31.578Z,78.51
2019-03-11T23:37:35.076Z,78.15
2019-03-11T23:42:37.569Z,78.58
2019-03-11T23:47:40.839Z,78.30
2019-03-11T23:52:44.481Z,78.26
2019-03-11T23:57:48.018Z,78.92
